Time;durP1;ratioP1;P1;durP2;ratioP2;P2;SDS_P1;SDS_P2;PMS_P1;PMS_P2;Temp;Humidity;BMP_temperature;BMP_pressure;BME280_temperature;BME280_humidity;BME280_pressure;Samples;Min_cycle;Max_cycle;Signal;HPM_P1;HPM_P2
2021/07/30 00:01:42;;;;;;;5.00;1.50;;;;;;;14.71;67.01;100337.20;125189;1095;64382;-83
2021/07/30 00:04:12;;;;;;;4.13;1.80;;;;;;;14.70;67.46;100337.39;125186;1096;64281;-84
2021/07/30 00:06:41;;;;;;;6.13;2.03;;;;;;;14.71;67.07;100336.38;126237;1096;62471;-81
2021/07/30 00:09:12;;;;;;;7.93;2.30;;;;;;;14.72;67.21;100340.67;126561;1096;64255;-82
2021/07/30 00:11:43;;;;;;;5.30;1.83;;;;;;;14.72;67.07;100343.34;125058;1096;64346;-82
2021/07/30 00:14:20;;;;;;;4.80;1.30;;;;;;;14.73;67.08;100336.96;125291;1096;64310;-83
2021/07/30 00:17:00;;;;;;;5.97;1.47;;;;;;;14.71;66.68;100339.86;125523;1096;64263;-82
2021/07/30 00:19:33;;;;;;;5.40;2.03;;;;;;;14.70;67.25;100338.20;127207;1096;64044;-78
2021/07/30 00:22:34;;;;;;;;;;;;;;;;;;;;;
2021/07/30 00:25:06;;;;;;;9.33;1.90;;;;;;;14.62;67.45;100341.95;125037;1096;64304;-81
2021/07/30 00:27:46;;;;;;;5.83;2.00;;;;;;;14.60;67.51;100344.01;125247;1096;65353;-82
2021/07/30 00:30:25;;;;;;;5.90;1.80;;;;;;;14.57;67.63;100343.59;125220;1096;64212;-81
2021/07/30 00:32:52;;;;;;;5.83;1.57;;;;;;;14.54;67.76;100342.14;125315;1096;64279;-83
2021/07/30 00:35:46;;;;;;;5.10;1.40;;;;;;;14.51;68.12;100337.20;125643;1095;64374;-81
2021/07/30 00:38:19;;;;;;;4.80;1.93;;;;;;;14.47;68.20;100338.65;126039;1096;64303;-81
2021/07/30 00:40:46;;;;;;;3.60;1.40;;;;;;;14.43;68.60;100340.13;125238;1095;64251;-83
2021/07/30 00:43:18;;;;;;;5.73;2.40;;;;;;;14.38;68.52;100345.25;124949;1096;64355;-80
2021/07/30 00:45:47;;;;;;;5.13;1.60;;;;;;;14.35;68.85;100340.34;124638;1096;64384;-80
2021/07/30 00:48:16;;;;;;;7.00;2.00;;;;;;;14.30;68.89;100340.94;124899;1096;64295;-81
2021/07/30 00:51:31;;;;;;;4.57;2.00;;;;;;;14.27;69.21;100342.19;125081;1096;64326;-81
2021/07/30 00:54:07;;;;;;;4.93;1.50;;;;;;;14.23;69.54;100343.63;125165;1095;65108;-81
2021/07/30 00:56:35;;;;;;;4.00;1.45;;;;;;;14.22;69.64;100335.85;125102;1095;64908;-82
2021/07/30 00:59:23;;;;;;;4.50;1.50;;;;;;;14.22;69.81;100341.19;126794;1096;62046;-82
2021/07/30 01:02:11;;;;;;;5.63;1.87;;;;;;;14.21;69.88;100345.68;125303;1095;64301;-84
2021/07/30 01:04:39;;;;;;;6.37;1.83;;;;;;;14.20;69.90;100343.24;125229;1096;64297;-81
2021/07/30 01:07:07;;;;;;;7.75;2.20;;;;;;;14.15;69.99;100341.17;125190;1096;64300;-82
2021/07/30 01:09:43;;;;;;;5.10;1.87;;;;;;;14.11;69.80;100339.97;125722;1096;64330;-82
2021/07/30 01:12:14;;;;;;;6.13;1.97;;;;;;;14.10;70.39;100342.84;124931;1095;64339;-80
2021/07/30 01:14:53;;;;;;;8.03;2.13;;;;;;;14.06;70.91;100337.09;125219;1095;64307;-81
2021/07/30 01:17:54;;;;;;;5.07;1.97;;;;;;;14.03;70.74;100332.99;125180;1094;64510;-81
2021/07/30 01:20:36;;;;;;;9.37;2.20;;;;;;;14.01;70.64;100334.23;125168;1095;64998;-82
2021/07/30 01:23:07;;;;;;;6.17;2.30;;;;;;;13.98;70.63;100339.96;125102;1095;64399;-82
2021/07/30 01:25:41;;;;;;;7.47;2.30;;;;;;;13.96;70.82;100331.34;125274;1096;64307;-83
2021/07/30 01:28:12;;;;;;;4.23;1.80;;;;;;;13.94;71.15;100339.58;125170;1096;64600;-81
2021/07/30 01:30:42;;;;;;;6.47;1.73;;;;;;;13.92;71.57;100338.11;125110;1096;64278;-81
2021/07/30 01:33:18;;;;;;;3.63;1.50;;;;;;;13.92;71.51;100340.78;124736;1095;64321;-82
2021/07/30 01:35:49;;;;;;;3.97;1.87;;;;;;;13.93;71.22;100337.10;125032;1095;64208;-80
2021/07/30 01:38:22;;;;;;;5.07;2.00;;;;;;;13.94;71.41;100336.06;126062;1095;65101;-81
2021/07/30 01:40:49;;;;;;;4.55;2.20;;;;;;;13.94;71.33;100328.06;125213;1095;64307;-84
2021/07/30 01:43:38;;;;;;;6.47;2.40;;;;;;;13.93;71.54;100331.77;124845;1095;64390;-81
2021/07/30 01:46:08;;;;;;;4.10;2.13;;;;;;;13.91;71.41;100329.30;125341;1096;64705;-81
2021/07/30 01:48:38;;;;;;;4.37;2.87;;;;;;;13.92;71.85;100330.95;125366;1096;65436;-81
2021/07/30 01:51:06;;;;;;;5.17;1.83;;;;;;;13.94;71.71;100338.73;125151;1095;64308;-81
2021/07/30 01:53:52;;;;;;;5.93;1.63;;;;;;;13.95;72.00;100332.38;125205;1096;64312;-82
2021/07/30 01:56:23;;;;;;;7.50;2.57;;;;;;;13.94;71.28;100338.73;125026;1096;64208;-80
2021/07/30 01:58:57;;;;;;;4.60;1.80;;;;;;;13.92;71.71;100340.78;125103;1095;64279;-80
2021/07/30 02:01:27;;;;;;;6.30;2.43;;;;;;;13.91;72.17;100339.16;125074;1095;64281;-80
2021/07/30 02:03:58;;;;;;;6.03;2.03;;;;;;;13.88;72.32;100337.72;125072;1095;64342;-80
2021/07/30 02:06:26;;;;;;;5.97;2.13;;;;;;;13.87;72.03;100323.55;125037;1096;64294;-80
2021/07/30 02:09:00;;;;;;;8.80;1.80;;;;;;;13.87;72.37;100334.22;124795;1096;64282;-78
2021/07/30 02:11:30;;;;;;;;;;;;;;;13.87;71.93;100326.22;125072;1096;64297;-80
2021/07/30 02:14:16;;;;;;;9.93;2.23;;;;;;;13.84;72.45;100323.97;124714;1096;64839;-77
2021/07/30 02:16:56;;;;;;;5.43;2.33;;;;;;;13.80;72.68;100320.08;124914;1095;64287;-80
2021/07/30 02:19:55;;;;;;;;;;;;;;;;;;;;;
2021/07/30 02:23:06;;;;;;;4.93;2.67;;;;;;;13.74;72.73;100315.56;126849;1097;63654;-82
2021/07/30 02:25:32;;;;;;;4.30;2.00;;;;;;;13.73;72.91;100311.27;125331;1096;64301;-81
2021/07/30 02:28:07;;;;;;;10.40;1.97;;;;;;;13.72;72.90;100308.80;125261;1096;64233;-83
2021/07/30 02:30:36;;;;;;;4.53;2.27;;;;;;;13.69;72.90;100312.70;125239;1095;64382;-82
2021/07/30 02:33:03;;;;;;;3.37;1.77;;;;;;;13.66;73.19;100313.94;125188;1096;64278;-80
2021/07/30 02:35:31;;;;;;;7.10;2.33;;;;;;;13.64;73.38;100315.14;124949;1096;64292;-79
2021/07/30 02:38:01;;;;;;;6.10;2.25;;;;;;;13.61;73.31;100316.38;124784;1096;64320;-80
2021/07/30 02:40:29;;;;;;;7.47;2.63;;;;;;;13.60;73.82;100321.91;124924;1096;64390;-78
2021/07/30 02:43:17;;;;;;;5.27;1.90;;;;;;;13.59;73.82;100325.61;125161;1096;64243;-82
2021/07/30 02:45:44;;;;;;;5.35;1.35;;;;;;;13.58;73.65;100324.80;125208;1096;64230;-82
2021/07/30 02:48:14;;;;;;;10.37;2.67;;;;;;;13.57;73.92;100317.80;125208;1095;64271;-83
2021/07/30 02:50:45;;;;;;;8.03;2.47;;;;;;;13.56;74.28;100326.03;124947;1096;64184;-81
2021/07/30 02:53:13;;;;;;;5.47;2.33;;;;;;;13.54;74.16;100323.55;125123;1096;64259;-83
2021/07/30 02:55:49;;;;;;;10.33;2.70;;;;;;;13.53;74.37;100327.23;125965;1096;64390;-80
2021/07/30 02:58:16;;;;;;;7.00;2.20;;;;;;;13.53;74.29;100327.23;125573;1096;64207;-81
2021/07/30 03:00:47;;;;;;;5.37;2.20;;;;;;;13.54;74.50;100322.75;125385;1096;64760;-81
2021/07/30 03:03:14;;;;;;;8.95;2.60;;;;;;;13.53;74.20;100332.56;125166;1096;64269;-81
2021/07/30 03:05:53;;;;;;;3.73;2.00;;;;;;;13.51;74.19;100321.28;125412;1095;64242;-81
2021/07/30 03:08:31;;;;;;;8.83;3.63;;;;;;;13.50;74.30;100326.84;125362;1096;64381;-81
2021/07/30 03:10:58;;;;;;;8.57;2.87;;;;;;;13.48;74.42;100319.03;125621;1096;64349;-80
2021/07/30 03:13:26;;;;;;;5.30;2.17;;;;;;;13.46;74.18;100315.75;125054;1096;64883;-80
2021/07/30 03:16:25;;;;;;;7.15;2.65;;;;;;;13.45;74.41;100325.59;125193;1096;64282;-85
2021/07/30 03:18:52;;;;;;;5.10;1.90;;;;;;;13.43;74.21;100316.14;124955;1095;64295;-82
2021/07/30 03:21:23;;;;;;;6.63;2.10;;;;;;;13.40;74.22;100317.38;125275;1096;64279;-82
2021/07/30 03:23:57;;;;;;;6.47;2.67;;;;;;;13.37;74.41;100315.13;125539;1096;64269;-82
2021/07/30 03:26:24;;;;;;;;;;;;;;;13.30;74.36;100305.47;125487;1096;64304;-81
2021/07/30 03:28:52;;;;;;;4.17;2.20;;;;;;;13.24;74.46;100312.41;125433;1095;64285;-80
2021/07/30 03:31:19;;;;;;;6.70;2.70;;;;;;;13.15;74.83;100309.09;125597;1095;64644;-80
2021/07/30 03:33:46;;;;;;;6.57;2.40;;;;;;;13.07;74.97;100311.97;125173;1095;64292;-81
2021/07/30 03:36:14;;;;;;;5.00;2.47;;;;;;;13.01;75.11;100315.42;125603;1096;64297;-80
2021/07/30 03:38:41;;;;;;;7.80;2.40;;;;;;;12.93;75.59;100311.09;125790;1096;64201;-82
2021/07/30 03:41:15;;;;;;;5.50;2.40;;;;;;;12.88;75.65;100313.54;125595;1096;64288;-80
2021/07/30 03:43:45;;;;;;;5.23;2.13;;;;;;;12.83;75.87;100311.45;125129;1096;64285;-81
2021/07/30 03:46:15;;;;;;;6.07;2.73;;;;;;;12.79;76.35;100314.72;125290;1095;64234;-80
2021/07/30 03:48:42;;;;;;;4.30;2.17;;;;;;;12.73;76.74;100311.02;125207;1095;64329;-80
2021/07/30 03:51:10;;;;;;;8.77;2.87;;;;;;;12.70;77.21;100305.27;125687;1096;64295;-79
2021/07/30 03:53:37;;;;;;;6.10;3.00;;;;;;;12.67;77.23;100313.66;125828;1096;64267;-82
2021/07/30 03:56:37;;;;;;;5.67;2.47;;;;;;;12.64;77.11;100297.07;125205;1095;64416;-82
2021/07/30 03:59:08;;;;;;;5.33;1.87;;;;;;;12.65;77.69;100308.53;125293;1095;64805;-82
2021/07/30 04:01:37;;;;;;;6.83;2.43;;;;;;;12.65;77.59;100303.20;125684;1096;64845;-85
2021/07/30 04:04:05;;;;;;;5.23;2.00;;;;;;;12.65;78.04;100301.36;125283;1095;64246;-81
2021/07/30 04:06:32;;;;;;;6.03;3.00;;;;;;;12.68;78.33;100307.30;125264;1096;64284;-80
2021/07/30 04:09:02;;;;;;;11.63;3.03;;;;;;;12.69;78.03;100303.61;125263;1095;64294;-81
2021/07/30 04:11:40;;;;;;;7.93;3.00;;;;;;;12.72;77.97;100303.23;125469;1095;64771;-81
2021/07/30 04:14:07;;;;;;;6.43;2.80;;;;;;;12.74;78.18;100306.52;128262;1096;61622;-78
2021/07/30 04:16:38;;;;;;;7.13;2.57;;;;;;;12.80;77.98;100305.72;127777;1096;61594;-81
2021/07/30 04:19:08;;;;;;;5.47;2.30;;;;;;;12.86;77.87;100307.59;127683;1095;64195;-79
2021/07/30 04:21:38;;;;;;;8.73;1.90;;;;;;;12.91;78.44;100304.33;125419;1095;64278;-81
2021/07/30 04:24:06;;;;;;;5.67;2.17;;;;;;;12.96;77.81;100308.05;125167;1096;64269;-81
2021/07/30 04:26:33;;;;;;;6.33;2.83;;;;;;;13.01;77.73;100313.58;125059;1095;64332;-81
2021/07/30 04:29:00;;;;;;;9.07;2.97;;;;;;;13.05;77.70;100312.16;125106;1095;64234;-81
2021/07/30 04:31:30;;;;;;;7.10;2.73;;;;;;;13.10;77.58;100313.40;125283;1095;64221;-81
2021/07/30 04:33:58;;;;;;;5.80;2.53;;;;;;;13.13;77.52;100315.64;125723;1096;64330;-79
2021/07/30 04:37:13;;;;;;;7.05;2.50;;;;;;;13.18;77.48;100313.22;125162;1096;64310;-82
2021/07/30 04:39:40;;;;;;;7.20;2.73;;;;;;;13.24;77.54;100318.55;125491;1096;64700;-82
2021/07/30 04:42:10;;;;;;;5.87;2.37;;;;;;;13.30;77.28;100314.28;125750;1095;64236;-82
2021/07/30 04:44:40;;;;;;;7.77;2.33;;;;;;;13.34;77.00;100312.85;125977;1096;64317;-82
2021/07/30 04:47:07;;;;;;;6.73;2.40;;;;;;;13.40;77.08;100309.38;126206;1096;64323;-81
2021/07/30 04:49:54;;;;;;;5.93;2.90;;;;;;;13.45;77.15;100317.61;125625;1096;64282;-84
2021/07/30 04:52:22;;;;;;;8.33;2.70;;;;;;;13.52;77.25;100314.13;125151;1095;64287;-82
2021/07/30 04:54:49;;;;;;;6.63;2.20;;;;;;;13.58;77.10;100316.80;125225;1096;64309;-81
2021/07/30 04:57:16;;;;;;;4.95;2.80;;;;;;;13.66;76.63;100318.42;124849;1095;64277;-75
2021/07/30 04:59:43;;;;;;;4.53;1.70;;;;;;;13.69;76.71;100310.03;124773;1096;64208;-75
2021/07/30 05:02:18;;;;;;;5.33;2.37;;;;;;;13.83;76.28;100311.69;124735;1096;64848;-77
2021/07/30 05:04:45;;;;;;;4.80;2.35;;;;;;;13.93;76.33;100313.91;124819;1096;64206;-76
2021/07/30 05:07:15;;;;;;;6.15;3.10;;;;;;;14.02;75.89;100314.52;124735;1094;64293;-76
2021/07/30 05:09:44;;;;;;;11.85;3.40;;;;;;;14.11;75.90;100312.45;124785;1095;64214;-77
2021/07/30 05:12:12;;;;;;;7.27;2.53;;;;;;;14.20;75.11;100322.71;124749;1096;64211;-77
2021/07/30 05:14:39;;;;;;;5.30;2.40;;;;;;;14.28;75.26;100319.02;124764;1096;64281;-77
2021/07/30 05:17:09;;;;;;;7.83;2.47;;;;;;;14.38;74.83;100323.91;124654;1096;64335;-77
2021/07/30 05:19:37;;;;;;;4.63;2.40;;;;;;;14.48;75.13;100318.95;124218;1096;64772;-75
2021/07/30 05:22:04;;;;;;;7.47;2.67;;;;;;;14.59;74.50;100322.85;124673;1096;64272;-73
2021/07/30 05:24:36;;;;;;;7.90;2.85;;;;;;;14.67;74.04;100322.63;124650;1096;64330;-72
2021/07/30 05:27:07;;;;;;;9.53;2.70;;;;;;;14.77;73.45;100327.50;124673;1095;64232;-72
2021/07/30 05:29:38;;;;;;;9.00;2.63;;;;;;;14.88;73.47;100313.50;124552;1095;64281;-71
2021/07/30 05:32:07;;;;;;;8.13;2.03;;;;;;;15.01;73.48;100317.97;124599;1096;64285;-72
2021/07/30 05:34:35;;;;;;;8.60;2.57;;;;;;;15.15;73.00;100313.35;124714;1095;64281;-73
2021/07/30 05:37:02;;;;;;;15.13;9.80;;;;;;;15.24;72.46;100310.22;124608;1096;65361;-77
2021/07/30 05:39:31;;;;;;;7.50;2.97;;;;;;;15.39;73.21;100307.25;124605;1096;64303;-73
2021/07/30 05:42:01;;;;;;;7.30;2.70;;;;;;;15.54;71.88;100312.28;124692;1095;64403;-72
2021/07/30 05:44:29;;;;;;;5.90;2.70;;;;;;;15.66;71.16;100309.72;124898;1096;64890;-75
2021/07/30 05:46:56;;;;;;;7.20;2.80;;;;;;;15.78;70.78;100309.87;124635;1095;64208;-75
2021/07/30 05:49:23;;;;;;;10.27;2.20;;;;;;;15.87;69.83;100317.41;124668;1096;64315;-75
2021/07/30 05:51:50;;;;;;;5.27;2.70;;;;;;;15.94;69.71;100305.81;124741;1095;64785;-75
2021/07/30 05:54:18;;;;;;;5.77;2.20;;;;;;;16.02;69.40;100302.86;124781;1096;64284;-76
2021/07/30 05:56:45;;;;;;;7.67;2.43;;;;;;;16.06;68.80;100304.86;125072;1095;64209;-75
2021/07/30 05:59:12;;;;;;;4.03;2.57;;;;;;;16.15;68.97;100296.55;124476;1096;65427;-77
2021/07/30 06:01:42;;;;;;;6.73;2.33;;;;;;;16.23;68.61;100299.76;124738;1094;64387;-77
2021/07/30 06:04:10;;;;;;;9.17;3.03;;;;;;;16.31;67.67;100295.98;126234;1095;64151;-75
2021/07/30 06:06:41;;;;;;;4.37;2.40;;;;;;;16.39;67.27;100300.23;126606;1096;64177;-74
2021/07/30 06:09:08;;;;;;;7.03;2.40;;;;;;;16.45;66.80;100296.67;125336;1096;64156;-77
2021/07/30 06:11:38;;;;;;;9.90;2.50;;;;;;;16.57;67.41;100300.21;125000;1096;64285;-77
2021/07/30 06:14:05;;;;;;;5.70;1.90;;;;;;;16.67;66.72;100297.83;124867;1095;64326;-76
2021/07/30 06:16:33;;;;;;;5.83;2.53;;;;;;;16.77;65.76;100299.17;124636;1095;64371;-76
2021/07/30 06:19:05;;;;;;;7.00;2.20;;;;;;;16.84;65.09;100303.42;124912;1096;64397;-78
2021/07/30 06:21:32;;;;;;;3.67;1.87;;;;;;;16.90;64.87;100310.55;124893;1096;64297;-76
2021/07/30 06:24:01;;;;;;;8.23;3.83;;;;;;;16.93;64.01;100303.92;124401;1096;64257;-77
2021/07/30 06:26:28;;;;;;;6.27;2.37;;;;;;;16.99;63.36;100307.56;124831;1096;64367;-78
2021/07/30 06:28:55;;;;;;;8.63;2.43;;;;;;;17.06;63.69;100309.09;124865;1095;65465;-78
2021/07/30 06:31:22;;;;;;;8.07;2.40;;;;;;;17.18;62.62;100305.66;124730;1096;65445;-76
2021/07/30 06:33:50;;;;;;;7.33;3.27;;;;;;;17.32;63.20;100307.11;124803;1096;65481;-77
2021/07/30 06:36:18;;;;;;;7.93;2.90;;;;;;;17.48;62.56;100310.98;124766;1095;64400;-77
2021/07/30 06:38:45;;;;;;;6.27;2.30;;;;;;;17.60;61.46;100311.02;124708;1096;64444;-76
2021/07/30 06:41:18;;;;;;;10.20;6.10;;;;;;;17.70;60.32;100308.56;124709;1096;65743;-74
2021/07/30 06:43:45;;;;;;;12.80;6.55;;;;;;;17.76;59.92;100302.27;124704;1096;64255;-74
2021/07/30 06:46:12;;;;;;;7.53;2.53;;;;;;;17.83;58.64;100308.39;124623;1097;64378;-75
2021/07/30 06:48:39;;;;;;;60.07;36.00;;;;;;;17.92;57.76;100320.41;124691;1095;64295;-73
2021/07/30 06:51:10;;;;;;;8.83;2.27;;;;;;;18.07;56.18;100308.39;124645;1096;64345;-75
2021/07/30 06:53:38;;;;;;;14.50;7.67;;;;;;;18.23;56.50;100306.86;124784;1096;64301;-75
2021/07/30 06:56:12;;;;;;;3.27;1.60;;;;;;;18.37;56.65;100307.44;124699;1095;64203;-75
2021/07/30 06:58:43;;;;;;;16.67;9.13;;;;;;;18.46;55.56;100297.95;124717;1096;64301;-76
2021/07/30 07:01:10;;;;;;;7.63;3.80;;;;;;;18.55;55.60;100307.27;124771;1097;64281;-75
2021/07/30 07:03:38;;;;;;;8.63;2.73;;;;;;;18.52;55.24;100297.01;124552;1096;64346;-75
2021/07/30 07:06:05;;;;;;;7.83;3.73;;;;;;;18.53;55.51;100301.31;124735;1096;64278;-76
2021/07/30 07:08:32;;;;;;;5.95;2.20;;;;;;;18.63;55.78;100295.34;124796;1095;64281;-71
2021/07/30 07:11:04;;;;;;;5.57;2.10;;;;;;;18.67;55.27;100293.81;124761;1096;64278;-75
2021/07/30 07:13:31;;;;;;;5.63;2.37;;;;;;;18.61;54.52;100287.52;124358;1095;64166;-76
2021/07/30 07:16:07;;;;;;;10.77;6.50;;;;;;;18.61;55.13;100292.89;124726;1097;64416;-75
2021/07/30 07:18:34;;;;;;;9.50;5.80;;;;;;;18.69;55.71;100295.20;124325;1096;64300;-76
2021/07/30 07:21:06;;;;;;;5.97;3.53;;;;;;;18.73;55.24;100296.36;124782;1096;64286;-73
2021/07/30 07:23:33;;;;;;;7.37;4.03;;;;;;;18.87;55.19;100280.82;124728;1096;65554;-74
2021/07/30 07:26:01;;;;;;;9.00;5.00;;;;;;;18.98;53.88;100276.45;124659;1096;64281;-76
2021/07/30 07:28:28;;;;;;;11.10;5.07;;;;;;;19.12;53.62;100283.14;124724;1095;64208;-75
2021/07/30 07:30:55;;;;;;;5.27;2.23;;;;;;;19.28;53.43;100276.17;124651;1096;64371;-75
2021/07/30 07:33:23;;;;;;;6.83;2.83;;;;;;;19.43;53.18;100262.16;124718;1095;64278;-74
2021/07/30 07:35:55;;;;;;;9.83;2.33;;;;;;;19.59;52.30;100271.28;124708;1097;64390;-74
2021/07/30 07:38:23;;;;;;;6.83;3.20;;;;;;;19.67;51.43;100283.52;124750;1095;64282;-75
2021/07/30 07:40:51;;;;;;;3.90;1.93;;;;;;;19.67;50.67;100268.19;124811;1096;64230;-74
2021/07/30 07:43:18;;;;;;;11.73;4.43;;;;;;;19.79;50.70;100273.52;124829;1095;65523;-73
2021/07/30 07:45:45;;;;;;;11.30;5.00;;;;;;;19.77;49.85;100282.91;124702;1095;64381;-75
2021/07/30 07:48:12;;;;;;;11.50;4.70;;;;;;;19.77;50.43;100272.14;124792;1096;64365;-73
2021/07/30 07:50:39;;;;;;;6.20;2.87;;;;;;;19.69;50.45;100267.95;124878;1096;64377;-75
2021/07/30 07:53:16;;;;;;;8.27;3.13;;;;;;;19.58;50.09;100268.86;124945;1096;64419;-76
2021/07/30 07:55:44;;;;;;;13.07;6.90;;;;;;;19.61;51.10;100262.97;124757;1096;64473;-76
2021/07/30 07:58:13;;;;;;;5.27;2.70;;;;;;;19.60;50.43;100272.92;124862;1096;64273;-75
2021/07/30 08:00:41;;;;;;;6.27;2.63;;;;;;;19.67;50.59;100278.95;124994;1096;64281;-76
2021/07/30 08:03:08;;;;;;;21.07;11.40;;;;;;;19.77;50.81;100267.56;125096;1096;64298;-77
2021/07/30 08:05:38;;;;;;;11.70;4.73;;;;;;;19.88;50.38;100266.64;124780;1096;64349;-76
2021/07/30 08:08:06;;;;;;;15.20;6.70;;;;;;;20.06;50.18;100270.11;124881;1096;64366;-75
2021/07/30 08:10:33;;;;;;;8.70;2.07;;;;;;;20.25;49.52;100263.40;124872;1096;64754;-74
2021/07/30 08:13:00;;;;;;;8.13;2.47;;;;;;;20.40;49.40;100260.08;125806;1096;64227;-75
2021/07/30 08:15:27;;;;;;;3.43;1.63;;;;;;;20.42;49.79;100262.50;125922;1095;64339;-76
2021/07/30 08:17:54;;;;;;;4.33;1.50;;;;;;;20.46;50.12;100263.63;124673;1096;64313;-77
2021/07/30 08:20:22;;;;;;;5.70;2.10;;;;;;;20.50;49.41;100262.07;124326;1096;64291;-76
2021/07/30 08:22:51;;;;;;;3.67;1.80;;;;;;;20.55;49.45;100273.73;124708;1096;64295;-76
2021/07/30 08:25:18;;;;;;;3.60;1.93;;;;;;;20.59;49.07;100274.05;124733;1096;64252;-76
2021/07/30 08:27:46;;;;;;;5.83;2.30;;;;;;;20.67;49.34;100273.61;124777;1097;64282;-73
2021/07/30 08:30:13;;;;;;;3.15;1.55;;;;;;;20.66;48.50;100269.30;124741;1095;64303;-77
2021/07/30 08:32:45;;;;;;;7.33;2.77;;;;;;;20.68;48.09;100282.54;124765;1096;64207;-77
2021/07/30 08:35:15;;;;;;;6.00;2.30;;;;;;;20.75;48.23;100273.17;124706;1094;64266;-75
2021/07/30 08:37:50;;;;;;;7.37;2.37;;;;;;;20.88;48.62;100279.24;124472;1096;64295;-77
2021/07/30 08:40:18;;;;;;;5.83;2.40;;;;;;;20.97;48.77;100259.67;124842;1096;64259;-75
2021/07/30 08:42:46;;;;;;;27.33;18.63;;;;;;;21.17;48.79;100261.73;124725;1096;64521;-76
2021/07/30 08:45:14;;;;;;;5.33;1.83;;;;;;;21.30;47.57;100262.39;124957;1096;64278;-77
2021/07/30 08:47:48;;;;;;;7.47;2.53;;;;;;;21.45;48.22;100265.23;124756;1095;64298;-78
2021/07/30 08:50:18;;;;;;;7.43;1.93;;;;;;;21.56;47.10;100263.44;124718;1096;64301;-75
2021/07/30 08:52:57;;;;;;;6.33;2.27;;;;;;;21.67;47.32;100254.33;124316;1095;64307;-78
2021/07/30 08:55:35;;;;;;;7.03;2.80;;;;;;;21.83;46.06;100254.45;124704;1095;64352;-77
2021/07/30 08:58:06;;;;;;;7.33;2.00;;;;;;;21.96;46.13;100252.09;124720;1096;64230;-77
2021/07/30 09:00:33;;;;;;;5.10;2.50;;;;;;;22.05;45.60;100255.10;124700;1097;65063;-78
2021/07/30 09:03:00;;;;;;;5.60;1.90;;;;;;;22.12;45.17;100246.76;124760;1096;64175;-77
2021/07/30 09:05:33;;;;;;;27.40;16.50;;;;;;;22.17;45.22;100254.91;124283;1095;64288;-77
2021/07/30 09:08:03;;;;;;;10.03;4.17;;;;;;;22.14;44.85;100247.31;124840;1096;64348;-76
2021/07/30 09:10:42;;;;;;;6.45;2.50;;;;;;;22.23;45.38;100237.68;124892;1096;64447;-77
2021/07/30 09:13:14;;;;;;;5.15;3.05;;;;;;;22.27;44.70;100246.89;124718;1096;64304;-75
2021/07/30 09:15:43;;;;;;;5.27;1.97;;;;;;;22.32;44.39;100252.30;124794;1095;64301;-76
2021/07/30 09:18:28;;;;;;;7.67;2.97;;;;;;;22.44;44.79;100265.60;124886;1096;64309;-76
2021/07/30 09:21:21;;;;;;;6.50;2.03;;;;;;;22.49;43.39;100251.29;124286;1097;64304;-77
2021/07/30 09:23:57;;;;;;;11.35;6.35;;;;;;;22.59;43.55;100240.52;124712;1096;64381;-77
2021/07/30 09:26:42;;;;;;;3.80;1.70;;;;;;;22.63;43.01;100229.96;124745;1096;64279;-75
2021/07/30 09:29:19;;;;;;;5.23;1.77;;;;;;;22.77;43.77;100242.70;124675;1096;64159;-76
2021/07/30 09:31:48;;;;;;;7.80;4.40;;;;;;;22.95;42.89;100235.16;124819;1095;64300;-75
2021/07/30 09:34:35;;;;;;;3.87;1.60;;;;;;;23.01;42.98;100228.70;124671;1095;64295;-76
2021/07/30 09:37:12;;;;;;;5.00;2.07;;;;;;;23.15;43.17;100224.39;124800;1095;64361;-76
2021/07/30 09:39:49;;;;;;;5.37;2.00;;;;;;;23.22;43.20;100226.83;124553;1096;64292;-76
2021/07/30 09:42:28;;;;;;;4.87;2.23;;;;;;;23.22;42.19;100221.41;124831;1096;64236;-77
2021/07/30 09:45:02;;;;;;;8.20;2.20;;;;;;;23.24;42.85;100218.45;124767;1096;64291;-77
2021/07/30 09:47:32;;;;;;;8.87;3.77;;;;;;;23.36;42.80;100203.55;124458;1096;64345;-77
2021/07/30 09:50:20;;;;;;;9.70;2.67;;;;;;;23.42;41.83;100204.38;124775;1096;64227;-76
2021/07/30 09:52:52;;;;;;;13.45;6.55;;;;;;;23.56;41.65;100216.23;124752;1096;64278;-77
2021/07/30 09:55:21;;;;;;;7.50;4.30;;;;;;;23.70;41.50;100210.28;124741;1097;64304;-74
2021/07/30 09:57:52;;;;;;;12.43;7.73;;;;;;;23.79;41.31;100208.66;124909;1097;64277;-77
2021/07/30 10:00:20;;;;;;;9.87;5.30;;;;;;;23.85;40.94;100215.69;124794;1097;64336;-76
2021/07/30 10:02:48;;;;;;;9.67;3.97;;;;;;;23.88;41.23;100207.00;124813;1096;64352;-77
2021/07/30 10:05:18;;;;;;;19.55;11.05;;;;;;;23.85;41.28;100202.14;124319;1096;64303;-74
2021/07/30 10:07:45;;;;;;;9.47;4.20;;;;;;;23.86;41.29;100192.91;124265;1096;64300;-79
2021/07/30 10:10:26;;;;;;;15.80;9.67;;;;;;;23.85;42.19;100199.44;124805;1096;64310;-78
2021/07/30 10:12:59;;;;;;;7.53;3.10;;;;;;;23.76;41.65;100176.72;124802;1096;64410;-77
2021/07/30 10:15:28;;;;;;;7.43;3.07;;;;;;;23.75;42.41;100178.56;124735;1096;64300;-76
2021/07/30 10:17:58;;;;;;;11.23;7.03;;;;;;;23.75;41.61;100177.76;124648;1096;65102;-77
2021/07/30 10:20:27;;;;;;;4.67;1.80;;;;;;;23.79;41.92;100171.55;124817;1095;64304;-75
2021/07/30 10:23:04;;;;;;;7.47;5.00;;;;;;;23.90;41.58;100166.09;124805;1096;64240;-76
2021/07/30 10:25:39;;;;;;;2.87;1.50;;;;;;;23.82;42.18;100170.17;124567;1095;64320;-75
2021/07/30 10:28:18;;;;;;;2.97;1.47;;;;;;;23.93;41.73;100157.40;124752;1095;64394;-76
2021/07/30 10:30:56;;;;;;;13.10;8.50;;;;;;;24.19;41.16;100158.92;124738;1095;65129;-77
2021/07/30 10:33:37;;;;;;;7.00;3.57;;;;;;;24.18;40.97;100154.61;124871;1095;64771;-77
2021/07/30 10:36:27;;;;;;;12.07;5.90;;;;;;;24.23;40.87;100159.19;124569;1095;64365;-77
2021/07/30 10:39:16;;;;;;;5.10;2.10;;;;;;;24.30;40.68;100161.58;124672;1097;64861;-77
2021/07/30 10:42:12;;;;;;;4.73;2.43;;;;;;;24.36;41.27;100169.41;124909;1097;64297;-77
2021/07/30 10:45:19;;;;;;;6.80;2.55;;;;;;;24.50;40.52;100150.63;124704;1096;64761;-77
2021/07/30 10:48:22;;;;;;;14.77;8.90;;;;;;;24.62;40.77;100147.58;124783;1096;64259;-75
2021/07/30 10:50:59;;;;;;;3.67;1.53;;;;;;;24.39;39.77;100147.14;124678;1096;64301;-75
2021/07/30 10:53:36;;;;;;;5.90;2.03;;;;;;;24.21;39.96;100147.81;124309;1096;64320;-76
2021/07/30 10:56:27;;;;;;;8.37;2.60;;;;;;;24.06;39.53;100142.47;124708;1095;64250;-75
2021/07/30 10:58:56;;;;;;;4.03;1.43;;;;;;;23.99;40.50;100127.33;124693;1095;64252;-75
2021/07/30 11:01:30;;;;;;;5.95;1.80;;;;;;;23.96;40.67;100132.48;124776;1096;64288;-74
2021/07/30 11:04:04;;;;;;;4.05;2.10;;;;;;;24.08;40.69;100134.84;124296;1095;64620;-74
2021/07/30 11:06:51;;;;;;;6.03;2.30;;;;;;;24.33;41.83;100134.73;124727;1095;64877;-75
2021/07/30 11:09:24;;;;;;;2.50;1.55;;;;;;;24.45;41.23;100128.15;124624;1096;64276;-76
2021/07/30 11:12:03;;;;;;;7.97;5.17;;;;;;;24.63;40.17;100127.52;124804;1097;64882;-74
2021/07/30 11:14:38;;;;;;;3.87;1.70;;;;;;;24.85;39.56;100137.92;124608;1095;64233;-74
2021/07/30 11:17:07;;;;;;;7.17;2.43;;;;;;;24.99;38.87;100122.61;124763;1096;64359;-76
2021/07/30 11:19:36;;;;;;;3.73;1.50;;;;;;;24.92;38.36;100118.59;124891;1096;64384;-75
2021/07/30 11:22:09;;;;;;;7.23;3.03;;;;;;;24.92;38.61;100126.73;124893;1097;64269;-75
2021/07/30 11:24:54;;;;;;;4.23;2.53;;;;;;;24.94;38.10;100108.27;124936;1096;64307;-75
2021/07/30 11:27:22;;;;;;;2.10;0.93;;;;;;;24.96;38.17;100106.88;124617;1096;64262;-74
2021/07/30 11:29:52;;;;;;;3.40;1.47;;;;;;;24.96;38.34;100117.73;124785;1096;64230;-74
2021/07/30 11:32:21;;;;;;;2.60;0.80;;;;;;;25.01;37.69;100120.42;124668;1095;64489;-76
2021/07/30 11:34:50;;;;;;;4.15;1.50;;;;;;;25.17;38.62;100106.70;124727;1096;64303;-76
2021/07/30 11:37:25;;;;;;;4.00;1.20;;;;;;;25.22;37.85;100110.18;124583;1096;64371;-77
2021/07/30 11:39:54;;;;;;;4.00;1.25;;;;;;;25.36;38.31;100115.76;124650;1097;64286;-80
2021/07/30 11:42:30;;;;;;;3.40;1.40;;;;;;;25.45;37.65;100107.78;124741;1096;64235;-75
2021/07/30 11:45:04;;;;;;;5.80;1.73;;;;;;;25.58;37.64;100098.13;124690;1097;64362;-75